Time;durP1;ratioP1;P1;durP2;ratioP2;P2;SDS_P1;SDS_P2;PMS_P1;PMS_P2;Temp;Humidity;BMP_temperature;BMP_pressure;BME280_temperature;BME280_humidity;BME280_pressure;Samples;Min_cycle;Max_cycle;Signal;HPM_P1;HPM_P2
2021/06/13 00:01:37;;;;;;;9.35;3.15;;;20.80;77.70;;;;;;5110715;28;20019;-80
2021/06/13 00:04:04;;;;;;;10.02;2.35;;;20.80;77.90;;;;;;5111601;28;20493;-80
2021/06/13 00:06:30;;;;;;;13.55;3.30;;;20.80;78.00;;;;;;5111269;28;20545;-80
2021/06/13 00:08:56;;;;;;;9.07;2.85;;;20.80;78.10;;;;;;5109985;28;20035;-78
2021/06/13 00:11:22;;;;;;;12.63;3.47;;;20.80;78.70;;;;;;5112165;28;20149;-80
2021/06/13 00:13:49;;;;;;;9.75;2.92;;;20.80;78.40;;;;;;5110911;28;20053;-78
2021/06/13 00:16:18;;;;;;;16.02;3.40;;;20.80;78.40;;;;;;5094371;28;20028;-80
2021/06/13 00:18:45;;;;;;;12.00;3.08;;;20.80;78.50;;;;;;5111875;28;20031;-79
2021/06/13 00:21:13;;;;;;;9.32;2.58;;;20.80;78.60;;;;;;5112722;28;20501;-81
2021/06/13 00:23:40;;;;;;;12.05;3.22;;;20.80;78.70;;;;;;5112004;28;20405;-80
2021/06/13 00:26:06;;;;;;;10.43;3.22;;;20.80;78.80;;;;;;5112437;28;20023;-79
2021/06/13 00:28:32;;;;;;;11.60;3.50;;;20.80;78.80;;;;;;5092157;28;20032;-79
2021/06/13 00:30:58;;;;;;;11.68;3.35;;;20.70;78.80;;;;;;5109656;28;20033;-80
2021/06/13 00:33:24;;;;;;;9.95;3.42;;;20.70;78.90;;;;;;5110528;28;20031;-80
2021/06/13 00:35:49;;;;;;;15.68;3.30;;;20.70;78.90;;;;;;5094015;28;20031;-77
2021/06/13 00:38:15;;;;;;;12.45;3.15;;;20.70;78.80;;;;;;5111010;28;20492;-78
2021/06/13 00:40:42;;;;;;;11.10;3.55;;;20.70;78.60;;;;;;5094914;28;20041;-79
2021/06/13 00:43:07;;;;;;;9.65;3.10;;;20.70;78.30;;;;;;5113607;28;20072;-80
2021/06/13 00:45:33;;;;;;;11.68;3.78;;;20.70;78.00;;;;;;5112657;28;20469;-76
2021/06/13 00:47:59;;;;;;;12.43;3.08;;;20.60;77.80;;;;;;5094198;28;20028;-80
2021/06/13 00:50:36;;;;;;;19.40;4.10;;;20.70;77.50;;;;;;5110449;28;20057;-79
2021/06/13 00:53:05;;;;;;;11.85;3.25;;;20.60;77.20;;;;;;5109988;28;20095;-79
2021/06/13 00:55:31;;;;;;;10.68;3.03;;;20.60;77.00;;;;;;5110695;28;20031;-79
2021/06/13 00:57:57;;;;;;;12.55;3.50;;;20.60;76.80;;;;;;5111558;28;20016;-79
2021/06/13 01:00:23;;;;;;;16.75;3.28;;;20.60;76.60;;;;;;5094165;28;20519;-77
2021/06/13 01:02:49;;;;;;;13.20;3.40;;;20.50;76.40;;;;;;5094912;28;20031;-80
2021/06/13 01:05:15;;;;;;;12.32;3.65;;;20.50;76.30;;;;;;5094918;28;20034;-78
2021/06/13 01:07:52;;;;;;;16.27;3.53;;;20.50;76.80;;;;;;5112290;28;20039;-80
2021/06/13 01:10:33;;;;;;;10.18;2.60;;;20.50;76.40;;;;;;5110751;28;20020;-79
2021/06/13 01:13:06;;;;;;;11.60;3.75;;;20.50;76.50;;;;;;5111766;28;20486;-78
2021/06/13 01:15:41;;;;;;;15.68;3.45;;;20.50;76.50;;;;;;5110963;28;20114;-80
2021/06/13 01:18:27;;;;;;;11.55;3.30;;;20.40;76.60;;;;;;5111381;28;20027;-78
2021/06/13 01:20:59;;;;;;;10.65;3.08;;;20.40;76.80;;;;;;5111402;28;20033;-80
2021/06/13 01:23:48;;;;;;;18.75;5.10;;;20.50;76.90;;;;;;5111453;28;20046;-77
2021/06/13 01:26:36;;;;;;;14.90;3.40;;;20.40;77.10;;;;;;5109327;28;20215;-78
2021/06/13 01:29:09;;;;;;;9.95;3.72;;;20.50;77.20;;;;;;5109406;28;20024;-79
2021/06/13 01:31:53;;;;;;;13.82;3.75;;;20.40;77.40;;;;;;5092395;28;20028;-79
2021/06/13 01:34:25;;;;;;;10.73;2.88;;;20.40;77.70;;;;;;5110307;28;20028;-80
2021/06/13 01:36:52;;;;;;;11.25;3.20;;;20.40;77.90;;;;;;5110950;28;20071;-79
2021/06/13 01:39:24;;;;;;;13.93;3.85;;;20.40;78.10;;;;;;5092230;28;20097;-79
2021/06/13 01:41:51;;;;;;;16.20;3.55;;;20.40;78.40;;;;;;5110021;28;20381;-79
2021/06/13 01:44:18;;;;;;;13.50;3.38;;;20.40;78.60;;;;;;5108761;28;20034;-80
2021/06/13 01:46:47;;;;;;;15.50;3.60;;;20.40;78.70;;;;;;5108556;28;20038;-78
2021/06/13 01:49:13;;;;;;;11.73;2.67;;;20.30;78.90;;;;;;5108513;28;20131;-80
2021/06/13 01:51:40;;;;;;;11.90;4.15;;;20.20;78.90;;;;;;5094051;28;20069;-76
2021/06/13 01:54:11;;;;;;;10.10;3.10;;;20.00;79.40;;;;;;5111471;28;20032;-79
2021/06/13 01:56:39;;;;;;;14.27;3.22;;;19.80;79.90;;;;;;5111179;28;20100;-81
2021/06/13 01:59:07;;;;;;;15.02;3.30;;;19.70;80.30;;;;;;5109336;28;20051;-79
2021/06/13 02:01:33;;;;;;;11.70;3.25;;;19.60;80.90;;;;;;5109300;28;20035;-78
2021/06/13 02:04:01;;;;;;;12.27;3.35;;;19.50;81.40;;;;;;5110663;28;20110;-79
2021/06/13 02:06:31;;;;;;;8.40;2.78;;;19.40;81.80;;;;;;5109185;28;20481;-81
2021/06/13 02:08:58;;;;;;;12.57;3.38;;;19.30;82.20;;;;;;5111233;28;20592;-78
2021/06/13 02:11:26;;;;;;;15.73;3.92;;;19.30;82.50;;;;;;5113333;28;20035;-79
2021/06/13 02:13:52;;;;;;;11.98;3.45;;;19.20;82.80;;;;;;5114468;28;20031;-80
2021/06/13 02:16:19;;;;;;;13.02;3.58;;;19.10;83.20;;;;;;5113032;28;20485;-79
2021/06/13 02:18:48;;;;;;;10.50;4.15;;;19.10;83.70;;;;;;5113795;28;20023;-78
2021/06/13 02:21:14;;;;;;;11.55;3.15;;;19.00;84.00;;;;;;5113510;28;20035;-80
2021/06/13 02:23:41;;;;;;;17.00;4.13;;;19.00;84.40;;;;;;5114170;28;20047;-80
2021/06/13 02:26:10;;;;;;;10.63;3.35;;;18.90;84.70;;;;;;5114057;28;20020;-79
2021/06/13 02:28:43;;;;;;;17.48;3.67;;;18.80;84.90;;;;;;5113155;28;20474;-79
2021/06/13 02:31:11;;;;;;;12.13;3.67;;;18.80;85.20;;;;;;5113888;28;20489;-79
2021/06/13 02:33:42;;;;;;;14.45;3.97;;;18.70;85.40;;;;;;5113718;28;20038;-78
2021/06/13 02:36:09;;;;;;;11.10;4.05;;;18.70;85.80;;;;;;5113132;28;20027;-78
2021/06/13 02:38:35;;;;;;;15.30;4.57;;;18.60;86.00;;;;;;5112234;28;20445;-78
2021/06/13 02:41:01;;;;;;;13.00;3.05;;;18.60;86.30;;;;;;5113444;28;20015;-77
2021/06/13 02:43:26;;;;;;;12.85;3.80;;;18.60;86.60;;;;;;5114017;27;20039;-80
2021/06/13 02:45:52;;;;;;;14.32;3.63;;;18.50;86.80;;;;;;5095820;28;20034;-79
2021/06/13 02:48:19;;;;;;;17.67;4.05;;;18.50;87.00;;;;;;5112974;28;20028;-78
2021/06/13 02:50:47;;;;;;;15.27;4.00;;;18.50;87.30;;;;;;5112552;28;20507;-80
2021/06/13 02:53:32;;;;;;;12.20;3.95;;;18.50;87.60;;;;;;5112634;28;20051;-78
2021/06/13 02:56:02;;;;;;;14.18;3.55;;;18.50;88.00;;;;;;5112643;28;20069;-79
2021/06/13 02:58:42;;;;;;;11.93;3.25;;;18.60;88.10;;;;;;5112656;28;20016;-79
2021/06/13 03:01:10;;;;;;;13.02;3.70;;;18.70;88.30;;;;;;5110754;28;20472;-80
2021/06/13 03:03:37;;;;;;;16.63;5.33;;;18.80;88.00;;;;;;5112805;28;20126;-80
2021/06/13 03:06:12;;;;;;;15.25;5.25;;;18.90;87.90;;;;;;5095897;28;20027;-79
2021/06/13 03:08:39;;;;;;;11.43;4.43;;;19.00;88.00;;;;;;5113225;28;20392;-78
2021/06/13 03:11:05;;;;;;;15.52;5.75;;;19.00;87.80;;;;;;5079086;28;20039;-77
2021/06/13 03:13:32;;;;;;;10.55;4.55;;;19.10;87.70;;;;;;5112342;28;20028;-78
2021/06/13 03:15:59;;;;;;;12.02;5.53;;;19.10;87.90;;;;;;5095154;28;20023;-78
2021/06/13 03:18:27;;;;;;;12.85;4.60;;;19.10;88.00;;;;;;5112417;28;20034;-78
2021/06/13 03:20:54;;;;;;;14.90;5.25;;;19.20;88.20;;;;;;5111498;28;20027;-79
2021/06/13 03:23:21;;;;;;;11.20;5.13;;;19.20;88.00;;;;;;5112268;28;20019;-79
2021/06/13 03:25:49;;;;;;;10.75;5.15;;;19.20;87.90;;;;;;5111953;28;20477;-78
2021/06/13 03:28:17;;;;;;;14.65;5.00;;;19.30;87.90;;;;;;5094257;28;20027;-79
2021/06/13 03:30:43;;;;;;;15.60;4.95;;;19.30;87.80;;;;;;5111595;28;20111;-78
2021/06/13 03:33:10;;;;;;;9.18;4.45;;;19.30;87.50;;;;;;5094790;28;20031;-79
2021/06/13 03:35:36;;;;;;;11.48;3.78;;;19.30;87.30;;;;;;5077844;28;20051;-80
2021/06/13 03:38:03;;;;;;;10.70;3.75;;;19.30;87.20;;;;;;5112693;28;20043;-79
2021/06/13 03:40:30;;;;;;;11.30;4.20;;;19.30;87.30;;;;;;5111189;28;20020;-80
2021/06/13 03:42:56;;;;;;;14.50;3.72;;;19.30;87.30;;;;;;5111276;28;20023;-80
2021/06/13 03:45:26;;;;;;;12.32;5.00;;;19.30;87.40;;;;;;5110261;28;20426;-79
2021/06/13 03:47:52;;;;;;;;;;;19.30;87.70;;;;;;5110478;28;20391;-81
2021/06/13 03:50:19;;;;;;;11.13;3.30;;;19.30;87.10;;;;;;5111406;28;20323;-80
2021/06/13 03:52:45;;;;;;;20.33;4.20;;;19.30;86.80;;;;;;5109871;28;20024;-81
2021/06/13 03:55:12;;;;;;;13.65;3.83;;;19.20;86.90;;;;;;5093202;28;20028;-79
2021/06/13 03:57:51;;;;;;;14.80;3.83;;;19.10;87.10;;;;;;5110055;28;20046;-78
2021/06/13 04:00:18;;;;;;;17.70;3.63;;;19.10;87.10;;;;;;5111631;28;20521;-81
2021/06/13 04:02:47;;;;;;;16.70;3.75;;;19.10;87.10;;;;;;5111628;28;20054;-79
2021/06/13 04:05:17;;;;;;;15.80;4.30;;;19.20;87.00;;;;;;5111464;27;20020;-79
2021/06/13 04:07:44;;;;;;;9.73;2.95;;;19.10;86.90;;;;;;5093098;28;20031;-79
2021/06/13 04:10:12;;;;;;;7.60;3.15;;;19.20;87.00;;;;;;5111100;28;20462;-80
2021/06/13 04:12:39;;;;;;;12.68;4.10;;;19.20;87.00;;;;;;5109659;28;20024;-78
2021/06/13 04:15:07;;;;;;;12.18;4.43;;;19.20;87.00;;;;;;5110945;28;20027;-79
2021/06/13 04:17:33;;;;;;;11.27;3.70;;;19.30;87.20;;;;;;5076226;28;20031;-79
2021/06/13 04:20:02;;;;;;;10.65;3.17;;;19.30;87.10;;;;;;5111578;28;20583;-79
2021/06/13 04:22:28;;;;;;;14.18;4.80;;;19.30;87.20;;;;;;5109997;28;20031;-79
2021/06/13 04:24:54;;;;;;;12.00;3.63;;;19.30;87.00;;;;;;5110351;28;20036;-78
2021/06/13 04:27:23;;;;;;;9.27;2.75;;;19.40;87.10;;;;;;5109877;28;20374;-80
2021/06/13 04:29:49;;;;;;;11.85;3.78;;;19.40;87.30;;;;;;5111443;28;20105;-79
2021/06/13 04:32:15;;;;;;;10.90;3.67;;;19.40;87.30;;;;;;5108865;28;20028;-79
2021/06/13 04:34:41;;;;;;;11.98;3.90;;;19.40;87.50;;;;;;5111469;28;20019;-80
2021/06/13 04:37:09;;;;;;;12.75;3.75;;;19.40;87.90;;;;;;5109542;28;20020;-78
2021/06/13 04:39:35;;;;;;;12.90;4.68;;;19.40;88.20;;;;;;5109059;28;20035;-80
2021/06/13 04:42:04;;;;;;;11.23;3.15;;;19.40;88.30;;;;;;5092361;28;20080;-80
2021/06/13 04:44:30;;;;;;;12.48;4.57;;;19.40;88.50;;;;;;5109864;28;20055;-78
2021/06/13 04:46:56;;;;;;;9.90;3.28;;;19.40;88.50;;;;;;5109697;28;20086;-80
2021/06/13 04:49:22;;;;;;;7.00;3.92;;;19.50;88.60;;;;;;5092756;28;20058;-80
2021/06/13 04:51:53;;;;;;;9.60;3.10;;;19.50;88.60;;;;;;5091977;28;20494;-81
2021/06/13 04:54:29;;;;;;;14.55;4.00;;;19.60;88.60;;;;;;5109305;28;20020;-79
2021/06/13 04:57:15;;;;;;;13.73;4.47;;;19.60;88.60;;;;;;5109337;28;20477;-81
2021/06/13 04:59:41;;;;;;;9.93;3.90;;;19.60;88.60;;;;;;5109860;28;20122;-78
2021/06/13 05:02:06;;;;;;;13.65;3.97;;;19.60;88.60;;;;;;5109582;28;20067;-79
2021/06/13 05:04:32;;;;;;;17.35;4.28;;;19.50;88.80;;;;;;5110102;28;20031;-81
2021/06/13 05:07:03;;;;;;;12.93;3.95;;;19.50;88.90;;;;;;5092897;28;20394;-80
2021/06/13 05:09:29;;;;;;;12.73;3.47;;;19.50;89.20;;;;;;5095141;28;20087;-80
2021/06/13 05:11:54;;;;;;;11.63;4.20;;;19.50;89.10;;;;;;5111466;28;20027;-80
2021/06/13 05:14:20;;;;;;;14.05;4.70;;;19.60;89.20;;;;;;5095329;28;20493;-79
2021/06/13 05:16:45;;;;;;;10.18;3.30;;;19.60;89.20;;;;;;5094593;28;20394;-78
2021/06/13 05:19:11;;;;;;;15.52;4.32;;;19.60;89.20;;;;;;5096092;28;20023;-78
2021/06/13 05:21:37;;;;;;;20.63;4.50;;;19.70;89.40;;;;;;5112734;28;20035;-80
2021/06/13 05:24:04;;;;;;;11.50;3.72;;;19.70;89.30;;;;;;5109331;28;20024;-80
2021/06/13 05:26:30;;;;;;;10.57;3.80;;;19.70;89.30;;;;;;5108824;28;20032;-80
2021/06/13 05:28:56;;;;;;;11.65;3.78;;;19.80;89.90;;;;;;5112516;28;20076;-79
2021/06/13 05:31:22;;;;;;;11.35;4.55;;;19.90;89.30;;;;;;5095276;28;20057;-79
2021/06/13 05:33:48;;;;;;;15.13;4.32;;;20.00;89.10;;;;;;5096358;28;20023;-79
2021/06/13 05:36:14;;;;;;;11.80;3.20;;;20.10;88.70;;;;;;5095637;28;20043;-76
2021/06/13 05:38:41;;;;;;;13.60;3.97;;;20.20;88.40;;;;;;5110940;28;20024;-79
2021/06/13 05:41:08;;;;;;;11.93;3.55;;;20.20;88.00;;;;;;5110532;28;20016;-80
2021/06/13 05:43:34;;;;;;;9.15;2.95;;;20.30;87.70;;;;;;5094079;28;20031;-79
2021/06/13 05:46:02;;;;;;;16.40;4.60;;;20.30;87.20;;;;;;5110268;28;20028;-77
2021/06/13 05:48:28;;;;;;;11.63;3.72;;;20.40;86.90;;;;;;5093791;28;20034;-78
2021/06/13 05:50:54;;;;;;;13.13;3.53;;;20.40;86.70;;;;;;5075882;28;20032;-82
2021/06/13 05:53:19;;;;;;;15.40;4.45;;;20.40;86.60;;;;;;5075456;28;20173;-80
2021/06/13 05:55:46;;;;;;;14.93;3.53;;;20.50;86.40;;;;;;5109311;28;20020;-78
2021/06/13 05:58:12;;;;;;;13.05;3.22;;;20.70;86.00;;;;;;5108690;28;20030;-80
2021/06/13 06:00:38;;;;;;;10.65;3.25;;;20.80;85.20;;;;;;5109709;28;20118;-80
2021/06/13 06:03:05;;;;;;;17.05;4.13;;;21.00;84.10;;;;;;5109630;28;20028;-77
2021/06/13 06:05:31;;;;;;;11.20;3.42;;;21.10;83.60;;;;;;5108146;28;20358;-80
2021/06/13 06:07:58;;;;;;;13.35;3.13;;;21.20;83.60;;;;;;5108565;28;20063;-80
2021/06/13 06:10:25;;;;;;;11.77;3.28;;;21.20;83.70;;;;;;5108953;28;20023;-78
2021/06/13 06:12:54;;;;;;;12.75;3.42;;;21.30;83.50;;;;;;5108488;28;20035;-81
2021/06/13 06:15:21;;;;;;;11.32;3.63;;;21.40;83.00;;;;;;5091498;28;20478;-80
2021/06/13 06:17:48;;;;;;;12.82;3.88;;;21.50;82.80;;;;;;5108328;28;20024;-77
2021/06/13 06:20:17;;;;;;;13.73;3.80;;;21.60;82.40;;;;;;5091865;28;20020;-81
2021/06/13 06:22:42;;;;;;;11.50;3.78;;;21.70;81.90;;;;;;5109867;28;20050;-80
2021/06/13 06:25:10;;;;;;;15.15;3.47;;;21.80;81.50;;;;;;5109951;28;20429;-81
2021/06/13 06:27:36;;;;;;;11.45;3.35;;;22.00;81.00;;;;;;5108930;28;20036;-80
2021/06/13 06:30:04;;;;;;;15.70;4.35;;;22.10;80.60;;;;;;5109289;28;20027;-80
2021/06/13 06:32:30;;;;;;;12.93;4.80;;;22.30;80.20;;;;;;5090806;28;20039;-78
2021/06/13 06:34:55;;;;;;;13.65;4.07;;;22.40;79.40;;;;;;5107591;28;20024;-78
2021/06/13 06:37:21;;;;;;;12.98;3.65;;;22.50;78.60;;;;;;5090458;28;20027;-78
2021/06/13 06:39:47;;;;;;;13.43;3.75;;;22.60;78.40;;;;;;5107359;28;20077;-80
2021/06/13 06:42:12;;;;;;;16.15;4.28;;;22.80;78.10;;;;;;5107209;28;20081;-79
2021/06/13 06:44:38;;;;;;;12.88;3.20;;;23.00;77.60;;;;;;5107232;28;20038;-78
2021/06/13 06:47:04;;;;;;;12.60;3.25;;;23.20;76.90;;;;;;5073307;28;20505;-81
2021/06/13 06:49:33;;;;;;;8.85;3.30;;;23.50;76.60;;;;;;5106769;28;20047;-78
2021/06/13 06:52:00;;;;;;;12.50;3.45;;;24.60;75.90;;;;;;5107845;28;20020;-79
2021/06/13 06:54:26;;;;;;;18.13;4.07;;;26.10;74.00;;;;;;5107559;28;20059;-81
2021/06/13 06:56:53;;;;;;;12.50;3.22;;;27.60;71.10;;;;;;5109487;28;20023;-80
2021/06/13 06:59:18;;;;;;;12.43;3.38;;;28.80;68.30;;;;;;5111024;28;20043;-80
2021/06/13 07:01:44;;;;;;;14.63;3.50;;;30.30;65.90;;;;;;5111023;28;20390;-81
2021/06/13 07:04:10;;;;;;;11.80;3.25;;;31.60;62.70;;;;;;5109601;28;20028;-79
2021/06/13 07:06:36;;;;;;;10.95;3.25;;;32.60;60.00;;;;;;5111213;28;20085;-79
2021/06/13 07:09:02;;;;;;;8.38;3.00;;;33.20;57.70;;;;;;5109686;28;20024;-79
2021/06/13 07:11:28;;;;;;;9.63;3.33;;;33.40;56.10;;;;;;5109418;28;20076;-80
2021/06/13 07:13:54;;;;;;;9.70;2.55;;;33.20;55.00;;;;;;5109695;28;20028;-79
2021/06/13 07:16:20;;;;;;;8.93;2.55;;;32.90;54.30;;;;;;5109666;28;20074;-80
2021/06/13 07:18:45;;;;;;;10.77;3.15;;;32.30;54.00;;;;;;5092914;28;20115;-80
2021/06/13 07:21:11;;;;;;;9.20;2.60;;;31.70;54.10;;;;;;5076193;28;20467;-82
2021/06/13 07:23:37;;;;;;;14.70;3.08;;;31.40;54.40;;;;;;5109895;28;20024;-80
2021/06/13 07:26:03;;;;;;;6.95;2.50;;;31.20;54.40;;;;;;5092611;28;20027;-82
2021/06/13 07:28:31;;;;;;;14.60;2.90;;;31.30;54.70;;;;;;5109933;28;20043;-81
2021/06/13 07:30:57;;;;;;;6.68;2.63;;;32.00;54.50;;;;;;5110581;28;20549;-80
2021/06/13 07:33:25;;;;;;;9.45;3.13;;;32.70;54.10;;;;;;5109379;28;20035;-79
2021/06/13 07:35:51;;;;;;;11.50;3.33;;;33.20;53.50;;;;;;5110385;27;20015;-82
2021/06/13 07:38:16;;;;;;;6.85;2.88;;;34.00;53.20;;;;;;5092164;28;20122;-80
2021/06/13 07:40:42;;;;;;;8.18;2.70;;;34.90;52.40;;;;;;5091913;28;20438;-81
2021/06/13 07:43:08;;;;;;;7.05;2.58;;;35.60;51.30;;;;;;5110284;28;20032;-81
2021/06/13 07:45:34;;;;;;;9.35;2.70;;;35.30;50.30;;;;;;5075024;28;20420;-79
2021/06/13 07:48:00;;;;;;;5.30;2.17;;;34.60;50.30;;;;;;5108877;28;20114;-81
2021/06/13 07:50:26;;;;;;;10.90;3.08;;;33.90;51.00;;;;;;5108736;28;20212;-80
2021/06/13 07:52:52;;;;;;;8.45;2.47;;;33.30;51.10;;;;;;5091870;28;20034;-80
2021/06/13 07:55:19;;;;;;;7.57;2.80;;;32.80;51.70;;;;;;5109894;28;20020;-80
2021/06/13 07:57:45;;;;;;;6.78;2.60;;;32.40;52.00;;;;;;5108330;28;20028;-80
2021/06/13 08:00:14;;;;;;;7.00;2.67;;;32.00;52.20;;;;;;5109619;28;20035;-81
2021/06/13 08:02:40;;;;;;;9.77;2.78;;;31.70;52.70;;;;;;5109679;28;20500;-81
2021/06/13 08:05:08;;;;;;;9.30;3.05;;;31.50;52.80;;;;;;5108691;28;20055;-78
2021/06/13 08:07:34;;;;;;;7.47;2.53;;;31.30;53.00;;;;;;5108530;28;20480;-79
2021/06/13 08:09:59;;;;;;;6.20;2.05;;;31.00;53.20;;;;;;5108650;28;20116;-81
2021/06/13 08:12:25;;;;;;;8.52;2.38;;;30.70;53.30;;;;;;5091913;28;20054;-81
2021/06/13 08:14:51;;;;;;;6.88;2.45;;;30.20;53.70;;;;;;5091524;28;20077;-81
2021/06/13 08:17:17;;;;;;;10.48;2.65;;;29.80;54.20;;;;;;5109898;28;20369;-81
2021/06/13 08:19:43;;;;;;;13.88;2.67;;;29.40;55.30;;;;;;5108423;28;20477;-80
2021/06/13 08:22:11;;;;;;;7.80;2.70;;;29.00;55.20;;;;;;5091312;28;20028;-80
2021/06/13 08:24:37;;;;;;;10.38;2.35;;;28.70;55.80;;;;;;5075020;28;20036;-80
2021/06/13 08:27:06;;;;;;;7.97;2.65;;;28.30;56.20;;;;;;5108104;28;20035;-79
2021/06/13 08:29:32;;;;;;;;;;;28.10;56.90;;;;;;5109991;28;20046;-79
2021/06/13 08:31:58;;;;;;;9.02;3.13;;;28.20;57.20;;;;;;5108513;28;19916;-80
2021/06/13 08:34:23;;;;;;;9.15;2.83;;;28.40;57.40;;;;;;5108125;28;20457;-81
2021/06/13 08:36:49;;;;;;;13.48;3.53;;;28.50;57.30;;;;;;5108076;28;20028;-79
2021/06/13 08:39:15;;;;;;;8.93;2.67;;;28.60;57.10;;;;;;5109431;28;20119;-81
2021/06/13 08:41:41;;;;;;;11.18;3.08;;;28.40;57.20;;;;;;5107847;28;20159;-80
2021/06/13 08:44:07;;;;;;;9.70;3.28;;;28.20;57.60;;;;;;5090498;28;20160;-80
2021/06/13 08:46:36;;;;;;;12.40;2.78;;;28.10;57.70;;;;;;5107525;28;20114;-80
2021/06/13 08:49:02;;;;;;;7.72;2.67;;;28.00;58.10;;;;;;5109032;28;20024;-80
2021/06/13 08:51:27;;;;;;;7.53;2.67;;;27.90;58.30;;;;;;5107773;28;20500;-81
2021/06/13 08:53:53;;;;;;;7.45;2.33;;;27.80;58.40;;;;;;5091282;28;20032;-79
2021/06/13 08:56:20;;;;;;;7.65;2.58;;;27.70;58.70;;;;;;5107754;28;20024;-79
2021/06/13 08:58:47;;;;;;;8.13;3.03;;;27.60;59.00;;;;;;5073511;28;20019;-80
2021/06/13 09:01:14;;;;;;;11.70;4.05;;;27.40;59.20;;;;;;5108403;28;20103;-79
2021/06/13 09:03:44;;;;;;;10.18;3.03;;;27.30;59.70;;;;;;5090860;28;20424;-79
2021/06/13 09:06:11;;;;;;;;;;;27.10;60.00;;;;;;5108307;28;20023;-79
2021/06/13 09:08:49;;;;;;;7.28;2.28;;;26.90;59.90;;;;;;5090592;28;19984;-79
2021/06/13 09:11:32;;;;;;;8.50;2.10;;;26.90;60.50;;;;;;5108586;28;20423;-81
2021/06/13 09:14:12;;;;;;;8.07;2.78;;;26.90;61.20;;;;;;5106853;28;20024;-79
2021/06/13 09:16:43;;;;;;;6.25;2.30;;;27.00;61.40;;;;;;5107005;28;20034;-77
2021/06/13 09:19:12;;;;;;;8.57;3.33;;;27.10;61.60;;;;;;5089354;28;20067;-76
2021/06/13 09:21:39;;;;;;;5.00;2.00;;;27.30;61.60;;;;;;5106678;28;20386;-80
2021/06/13 09:24:21;;;;;;;6.65;2.22;;;27.50;61.70;;;;;;5106956;28;20032;-79
2021/06/13 09:26:47;;;;;;;4.38;1.90;;;27.60;61.60;;;;;;5108135;28;20031;-79
2021/06/13 09:29:13;;;;;;;4.15;1.42;;;27.80;61.10;;;;;;5106831;28;20065;-79
2021/06/13 09:31:38;;;;;;;9.43;1.67;;;27.70;60.90;;;;;;5106677;28;20056;-81
2021/06/13 09:34:08;;;;;;;3.17;1.55;;;27.60;61.00;;;;;;5106367;28;20038;-78
2021/06/13 09:36:35;;;;;;;5.60;1.85;;;27.30;61.00;;;;;;5108907;28;20124;-81
2021/06/13 09:39:05;;;;;;;4.88;1.85;;;27.20;61.40;;;;;;5107038;28;20028;-78
2021/06/13 09:41:40;;;;;;;6.38;1.73;;;27.00;61.80;;;;;;5108248;28;20424;-79
2021/06/13 09:44:18;;;;;;;4.75;1.63;;;26.90;62.10;;;;;;5106458;28;20031;-79
2021/06/13 09:46:49;;;;;;;8.43;1.75;;;26.80;62.30;;;;;;5106737;28;20148;-80
2021/06/13 09:49:17;;;;;;;5.10;2.08;;;26.80;62.50;;;;;;5108484;28;20098;-80
2021/06/13 09:51:53;;;;;;;3.90;1.80;;;26.90;62.70;;;;;;5090217;28;20478;-80
2021/06/13 09:54:24;;;;;;;5.15;1.63;;;27.10;62.70;;;;;;5108185;28;20037;-80
2021/06/13 09:56:50;;;;;;;4.18;1.50;;;27.20;62.40;;;;;;5107816;28;20044;-80
2021/06/13 09:59:33;;;;;;;5.43;1.63;;;27.30;62.00;;;;;;5108910;28;20058;-79
2021/06/13 10:02:02;;;;;;;5.72;1.83;;;27.40;61.60;;;;;;5107921;28;20026;-81
2021/06/13 10:04:31;;;;;;;6.85;2.00;;;27.50;61.20;;;;;;5107380;28;20477;-78
2021/06/13 10:07:17;;;;;;;7.82;1.73;;;27.40;61.00;;;;;;5108270;28;20024;-79
2021/06/13 10:09:48;;;;;;;6.03;1.63;;;27.40;60.80;;;;;;5106272;28;20023;-80
2021/06/13 10:12:15;;;;;;;4.25;1.50;;;27.30;60.70;;;;;;5106498;28;20056;-78
2021/06/13 10:14:41;;;;;;;3.45;1.10;;;27.30;60.90;;;;;;5109172;28;20051;-78
2021/06/13 10:17:09;;;;;;;3.20;1.50;;;27.40;60.80;;;;;;5106938;28;20027;-80
2021/06/13 10:19:41;;;;;;;5.13;1.60;;;27.30;60.80;;;;;;5089811;28;20030;-81
2021/06/13 10:22:09;;;;;;;10.15;1.83;;;27.20;60.90;;;;;;5109303;28;20050;-79
2021/06/13 10:24:37;;;;;;;4.57;2.28;;;27.20;61.00;;;;;;5090718;28;20515;-79
2021/06/13 10:27:10;;;;;;;3.92;1.48;;;27.20;61.10;;;;;;5107173;28;20159;-80
2021/06/13 10:29:39;;;;;;;5.45;2.47;;;27.20;61.10;;;;;;5106941;28;20123;-80
2021/06/13 10:32:06;;;;;;;;;;;27.10;60.80;;;;;;5110045;28;20019;-79
2021/06/13 10:34:32;;;;;;;4.90;1.75;;;27.10;61.00;;;;;;5110287;28;19905;-80
2021/06/13 10:37:00;;;;;;;7.13;1.80;;;27.30;60.90;;;;;;5110119;28;20505;-79
2021/06/13 10:39:28;;;;;;;5.60;1.80;;;27.80;60.50;;;;;;5110387;28;20489;-80
2021/06/13 10:41:55;;;;;;;4.13;1.60;;;28.10;59.90;;;;;;5093746;28;20031;-81
2021/06/13 10:44:24;;;;;;;5.50;1.42;;;28.30;59.50;;;;;;5110582;28;20406;-81
2021/06/13 10:46:52;;;;;;;;;;;28.50;59.30;;;;;;5111031;28;20024;-79
2021/06/13 10:49:37;;;;;;;4.47;1.90;;;28.90;59.80;;;;;;5111231;28;19993;-80
2021/06/13 10:52:10;;;;;;;5.75;1.60;;;29.50;59.10;;;;;;5109804;28;20039;-80
2021/06/13 10:54:37;;;;;;;4.60;1.40;;;29.80;57.90;;;;;;5110457;28;20081;-80
2021/06/13 10:57:06;;;;;;;5.90;1.75;;;30.00;57.40;;;;;;5109952;28;20110;-80
2021/06/13 10:59:33;;;;;;;5.23;1.90;;;30.00;57.00;;;;;;5109416;28;20112;-80
2021/06/13 11:02:09;;;;;;;5.00;1.40;;;30.10;56.80;;;;;;5110398;28;20032;-80
2021/06/13 11:04:45;;;;;;;4.68;1.42;;;30.20;56.60;;;;;;5110217;28;20024;-79
2021/06/13 11:07:29;;;;;;;3.70;1.40;;;30.10;56.20;;;;;;5110209;28;20042;-78
2021/06/13 11:10:05;;;;;;;3.53;1.65;;;30.00;55.80;;;;;;5111947;28;20020;-78
2021/06/13 11:12:59;;;;;;;4.53;1.77;;;29.70;55.80;;;;;;5111306;28;20424;-79
2021/06/13 11:15:31;;;;;;;5.65;1.35;;;29.70;56.00;;;;;;5109561;28;20032;-80
2021/06/13 11:18:13;;;;;;;9.13;1.70;;;29.80;56.10;;;;;;5110129;28;20020;-77
2021/06/13 11:20:51;;;;;;;5.18;1.50;;;29.80;55.70;;;;;;5110967;28;20104;-79
2021/06/13 11:23:23;;;;;;;4.40;1.80;;;29.70;55.50;;;;;;5111805;28;20023;-81
2021/06/13 11:25:59;;;;;;;5.95;1.80;;;29.50;55.70;;;;;;5111221;28;20385;-79
2021/06/13 11:28:49;;;;;;;6.03;1.75;;;29.30;55.90;;;;;;5109235;28;20044;-79
2021/06/13 11:31:15;;;;;;;5.07;1.38;;;29.20;56.20;;;;;;5108552;28;20119;-79
2021/06/13 11:33:43;;;;;;;2.88;1.63;;;29.20;56.80;;;;;;5110029;28;20547;-78
2021/06/13 11:36:15;;;;;;;4.88;1.27;;;29.40;56.80;;;;;;5109651;28;20039;-77
2021/06/13 11:38:45;;;;;;;5.60;1.95;;;29.70;56.50;;;;;;5109521;28;20104;-79
2021/06/13 11:41:42;;;;;;;2.80;1.27;;;29.80;56.20;;;;;;5108940;28;20382;-78
2021/06/13 11:44:10;;;;;;;4.55;1.38;;;29.70;55.90;;;;;;5110241;28;20590;-78
2021/06/13 11:46:42;;;;;;;4.88;1.77;;;29.40;55.90;;;;;;5111459;28;20055;-77
2021/06/13 11:49:14;;;;;;;5.85;1.83;;;29.10;56.00;;;;;;5109435;28;20131;-79
2021/06/13 11:51:50;;;;;;;4.10;1.40;;;28.90;56.60;;;;;;5110876;28;20035;-79
2021/06/13 11:54:41;;;;;;;4.95;2.05;;;28.70;57.00;;;;;;5108158;28;20047;-68
2021/06/13 11:57:27;;;;;;;5.97;1.98;;;28.70;57.30;;;;;;5111055;28;20104;-78
2021/06/13 11:59:52;;;;;;;4.60;1.70;;;28.70;57.20;;;;;;5110441;28;20130;-80
2021/06/13 12:02:20;;;;;;;4.40;1.52;;;28.70;57.20;;;;;;5108504;28;20114;-79
2021/06/13 12:04:46;;;;;;;8.82;2.20;;;28.70;57.10;;;;;;5091689;28;20480;-77
2021/06/13 12:07:15;;;;;;;5.28;1.60;;;28.80;57.30;;;;;;5109117;28;20043;-82
2021/06/13 12:09:41;;;;;;;2.28;1.25;;;28.80;57.10;;;;;;5108844;28;20123;-80
2021/06/13 12:12:12;;;;;;;5.05;1.63;;;28.80;57.10;;;;;;5107842;28;20028;-80
2021/06/13 12:14:39;;;;;;;6.75;1.83;;;28.70;57.10;;;;;;5108417;28;20466;-81
2021/06/13 12:17:05;;;;;;;6.90;1.70;;;28.70;57.20;;;;;;5110022;28;20024;-82
2021/06/13 12:19:39;;;;;;;4.82;1.60;;;28.50;57.30;;;;;;5108675;28;20411;-81
2021/06/13 12:22:22;;;;;;;5.55;1.60;;;28.50;57.50;;;;;;5108684;28;20028;-79
2021/06/13 12:27:22;;;;;;;4.35;1.45;;;28.30;58.10;;;;;;5109247;28;20046;-79
2021/06/13 12:29:52;;;;;;;5.05;1.60;;;28.40;58.20;;;;;;5107971;28;20030;-81
2021/06/13 12:32:18;;;;;;;5.35;1.48;;;28.70;58.30;;;;;;5110523;27;20024;-79
2021/06/13 12:34:46;;;;;;;6.80;1.63;;;28.80;57.80;;;;;;5107653;28;20146;-81
2021/06/13 12:37:23;;;;;;;4.43;1.63;;;28.80;57.60;;;;;;5109329;28;20019;-77
2021/06/13 12:40:01;;;;;;;4.78;1.58;;;28.80;57.60;;;;;;5092471;28;20113;-80
2021/06/13 12:42:28;;;;;;;6.05;2.05;;;28.80;57.50;;;;;;5109028;28;20038;-81
2021/06/13 12:45:00;;;;;;;6.90;2.00;;;28.70;57.60;;;;;;5109846;28;20028;-80
2021/06/13 12:47:26;;;;;;;4.22;1.75;;;28.60;57.80;;;;;;5109463;28;20403;-82
2021/06/13 12:49:53;;;;;;;3.90;1.35;;;28.40;57.90;;;;;;5109355;28;20350;-79
2021/06/13 12:52:19;;;;;;;8.00;2.65;;;28.20;58.10;;;;;;5108660;28;20160;-79
2021/06/13 12:55:03;;;;;;;5.22;1.48;;;28.00;58.30;;;;;;5106620;28;20023;-80